Time;durP1;ratioP1;P1;durP2;ratioP2;P2;SDS_P1;SDS_P2;PMS_P1;PMS_P2;Temp;Humidity;BMP_temperature;BMP_pressure;BME280_temperature;BME280_humidity;BME280_pressure;Samples;Min_cycle;Max_cycle;Signal;HPM_P1;HPM_P2
2021/12/11 00:00:38;;;;;;;21.58;15.50;;;2.00;99.90;;;;;;4890018;29;20056;-84
2021/12/11 00:03:22;;;;;;;20.45;14.35;;;2.00;99.90;;;;;;4887870;29;20140;-84
2021/12/11 00:05:57;;;;;;;22.83;14.13;;;2.00;99.90;;;;;;4903101;29;20049;-84
2021/12/11 00:08:28;;;;;;;23.13;15.15;;;2.00;99.90;;;;;;4888594;29;20258;-84
2021/12/11 00:11:10;;;;;;;20.65;13.20;;;2.00;99.90;;;;;;4897148;29;20052;-84
2021/12/11 00:13:40;;;;;;;18.02;12.88;;;2.00;99.90;;;;;;4902972;29;20072;-84
2021/12/11 00:16:11;;;;;;;20.08;13.65;;;2.00;99.90;;;;;;4902222;29;20407;-84
2021/12/11 00:18:39;;;;;;;23.38;14.45;;;2.00;99.90;;;;;;4884435;29;20132;-84
2021/12/11 00:21:11;;;;;;;19.25;13.85;;;2.00;99.90;;;;;;4892074;29;20052;-84
2021/12/11 00:23:49;;;;;;;20.67;14.10;;;2.00;99.90;;;;;;4888381;29;20498;-84
2021/12/11 00:26:24;;;;;;;18.30;12.40;;;2.00;99.90;;;;;;4887308;29;20049;-84
2021/12/11 00:28:52;;;;;;;21.83;13.50;;;2.00;99.90;;;;;;4886949;29;20052;-84
2021/12/11 00:31:20;;;;;;;20.02;14.32;;;2.00;99.90;;;;;;4886745;29;20053;-84
2021/12/11 00:33:49;;;;;;;21.00;13.95;;;2.00;99.90;;;;;;4901030;29;20144;-84
2021/12/11 00:36:20;;;;;;;24.35;14.75;;;1.90;99.90;;;;;;4888152;29;20061;-84
2021/12/11 00:38:50;;;;;;;23.20;13.43;;;1.90;99.90;;;;;;4887821;29;20059;-84
2021/12/11 00:41:19;;;;;;;;;;;1.90;99.90;;;;;;4887072;29;20063;-84
2021/12/11 00:43:47;;;;;;;18.10;12.35;;;1.90;99.90;;;;;;4887492;29;19930;-84
2021/12/11 00:46:23;;;;;;;19.85;14.00;;;1.90;99.90;;;;;;4889162;29;20052;-84
2021/12/11 00:48:50;;;;;;;23.10;14.73;;;1.90;99.90;;;;;;4901453;29;20067;-84
2021/12/11 00:51:20;;;;;;;20.40;13.30;;;1.90;99.90;;;;;;4887702;29;20048;-84
2021/12/11 00:53:51;;;;;;;19.10;12.88;;;1.90;99.90;;;;;;4889198;29;20055;-84
2021/12/11 00:56:33;;;;;;;21.88;14.48;;;1.90;99.90;;;;;;4888355;29;20067;-84
2021/12/11 00:59:08;;;;;;;18.25;12.75;;;1.90;99.90;;;;;;4886875;29;20044;-84
2021/12/11 01:01:55;;;;;;;18.20;11.95;;;1.90;99.90;;;;;;4886504;29;20063;-84
2021/12/11 01:04:24;;;;;;;18.98;12.32;;;1.90;99.90;;;;;;4890883;29;20079;-84
2021/12/11 01:06:54;;;;;;;18.45;12.55;;;2.00;99.90;;;;;;4883835;29;20430;-84
2021/12/11 01:09:21;;;;;;;;;;;1.90;99.90;;;;;;4887095;29;20045;-85
2021/12/11 01:11:51;;;;;;;21.10;11.90;;;2.00;99.90;;;;;;4883512;29;20342;-85
2021/12/11 01:14:33;;;;;;;20.23;13.80;;;2.00;99.90;;;;;;4885847;29;20060;-85
2021/12/11 01:17:23;;;;;;;20.35;12.68;;;2.00;99.90;;;;;;4886720;29;20494;-85
2021/12/11 01:19:55;;;;;;;18.38;11.25;;;2.00;99.90;;;;;;4885576;29;20052;-85
2021/12/11 01:22:34;;;;;;;20.17;13.25;;;2.00;99.90;;;;;;4891908;29;20067;-85
2021/12/11 01:25:14;;;;;;;17.85;13.15;;;2.00;99.90;;;;;;4886694;29;20052;-85
2021/12/11 01:27:44;;;;;;;;;;;2.00;99.90;;;;;;4884391;29;20418;-85
2021/12/11 01:30:23;;;;;;;18.55;11.93;;;2.00;99.90;;;;;;4889823;29;19931;-85
2021/12/11 01:32:51;;;;;;;22.15;14.20;;;2.00;99.90;;;;;;4885317;29;20423;-85
2021/12/11 01:35:18;;;;;;;15.85;12.15;;;2.00;99.90;;;;;;4888493;29;20075;-85
2021/12/11 01:37:49;;;;;;;17.33;11.95;;;2.00;99.90;;;;;;4888376;29;20055;-85
2021/12/11 01:40:20;;;;;;;22.80;14.70;;;2.00;99.90;;;;;;4887423;29;20407;-85
2021/12/11 01:42:48;;;;;;;21.00;14.85;;;2.00;99.90;;;;;;4887157;29;20059;-85
2021/12/11 01:45:17;;;;;;;17.80;12.90;;;2.00;99.90;;;;;;4885189;29;20075;-85
2021/12/11 01:47:48;;;;;;;17.98;14.23;;;2.00;99.90;;;;;;4887020;29;20499;-85
2021/12/11 01:50:45;;;;;;;24.65;15.20;;;1.90;99.90;;;;;;4886049;29;20431;-85
2021/12/11 01:53:20;;;;;;;17.67;13.23;;;1.90;99.90;;;;;;4885191;29;20341;-85
2021/12/11 01:55:54;;;;;;;19.00;12.88;;;1.90;99.90;;;;;;4882482;29;20055;-85
2021/12/11 01:58:29;;;;;;;17.30;12.80;;;1.90;99.90;;;;;;4884457;29;20588;-84
2021/12/11 02:01:03;;;;;;;18.98;14.75;;;1.90;99.90;;;;;;4880623;29;20041;-84
2021/12/11 02:03:33;;;;;;;19.35;13.50;;;1.90;99.90;;;;;;4885559;29;20471;-84
2021/12/11 02:06:00;;;;;;;18.58;13.43;;;1.90;99.90;;;;;;4888128;29;20065;-84
2021/12/11 02:08:33;;;;;;;15.63;11.85;;;1.90;99.90;;;;;;4886929;29;20388;-84
2021/12/11 02:11:09;;;;;;;21.23;12.40;;;1.90;99.90;;;;;;4886661;29;20080;-84
2021/12/11 02:13:45;;;;;;;17.27;11.27;;;2.00;99.90;;;;;;4900778;29;20357;-84
2021/12/11 02:16:19;;;;;;;19.70;12.55;;;2.00;99.90;;;;;;4884473;29;20699;-84
2021/12/11 02:18:49;;;;;;;20.67;13.10;;;2.00;99.90;;;;;;4890357;29;20053;-84
2021/12/11 02:21:25;;;;;;;17.83;12.73;;;2.00;99.90;;;;;;4899012;29;20558;-84
2021/12/11 02:24:03;;;;;;;19.35;13.20;;;2.00;99.90;;;;;;4888956;29;20059;-84
2021/12/11 02:26:32;;;;;;;16.63;12.52;;;2.00;99.90;;;;;;4891365;29;20292;-84
2021/12/11 02:29:24;;;;;;;23.42;14.05;;;2.00;99.90;;;;;;4884302;29;20065;-84
2021/12/11 02:32:01;;;;;;;19.05;12.82;;;2.00;99.90;;;;;;4889530;29;20045;-84
2021/12/11 02:34:49;;;;;;;19.13;12.55;;;2.00;99.90;;;;;;4906728;29;20057;-84
2021/12/11 02:37:28;;;;;;;16.65;11.98;;;2.00;99.90;;;;;;4888682;29;20056;-84
2021/12/11 02:40:06;;;;;;;17.73;12.07;;;2.00;99.90;;;;;;4907815;29;20049;-84
2021/12/11 02:42:38;;;;;;;20.58;13.52;;;2.00;99.90;;;;;;4892514;29;20139;-84
2021/12/11 02:45:12;;;;;;;21.15;13.55;;;2.00;99.90;;;;;;4888056;29;20040;-85
2021/12/11 02:47:48;;;;;;;19.50;13.65;;;2.00;99.90;;;;;;4876721;29;20608;-84
2021/12/11 02:50:48;;;;;;;20.08;13.70;;;2.00;99.90;;;;;;4890546;29;20135;-84
2021/12/11 02:53:24;;;;;;;18.67;13.00;;;2.00;99.90;;;;;;4878776;29;20053;-84
2021/12/11 02:56:27;;;;;;;21.08;14.55;;;2.00;99.90;;;;;;4890985;29;20120;-84
2021/12/11 02:58:57;;;;;;;20.73;13.85;;;2.00;99.90;;;;;;4885115;29;20050;-84
2021/12/11 03:01:32;;;;;;;20.77;14.75;;;2.00;99.90;;;;;;4904427;29;20080;-84
2021/12/11 03:04:17;;;;;;;18.73;13.23;;;2.00;99.90;;;;;;4886448;29;20056;-84
2021/12/11 03:06:48;;;;;;;21.08;14.07;;;2.00;99.90;;;;;;4891575;29;20056;-84
2021/12/11 03:09:19;;;;;;;19.60;14.32;;;2.00;99.90;;;;;;4889095;29;20059;-84
2021/12/11 03:11:48;;;;;;;17.23;12.10;;;2.00;99.90;;;;;;4892162;29;20119;-84
2021/12/11 03:14:18;;;;;;;17.17;12.88;;;2.00;99.90;;;;;;4905125;29;20040;-85
2021/12/11 03:16:48;;;;;;;18.23;13.35;;;2.00;99.90;;;;;;4907626;29;20056;-85
2021/12/11 03:19:19;;;;;;;17.77;12.52;;;2.00;99.90;;;;;;4888301;29;20053;-84
2021/12/11 03:21:48;;;;;;;19.85;12.82;;;1.90;99.90;;;;;;4900555;29;20052;-84
2021/12/11 03:24:17;;;;;;;18.75;13.07;;;1.90;99.90;;;;;;4873414;29;20054;-84
2021/12/11 03:26:46;;;;;;;18.77;12.88;;;1.90;99.90;;;;;;4906262;29;20499;-84
2021/12/11 03:29:14;;;;;;;21.02;14.23;;;1.90;99.90;;;;;;4887032;29;20079;-84
2021/12/11 03:31:42;;;;;;;18.92;13.70;;;1.90;99.90;;;;;;4889783;29;20104;-84
2021/12/11 03:34:15;;;;;;;24.33;13.93;;;1.90;99.90;;;;;;4887130;29;20053;-84
2021/12/11 03:36:43;;;;;;;19.23;13.40;;;1.90;99.90;;;;;;4891705;29;20055;-84
2021/12/11 03:39:17;;;;;;;19.27;12.85;;;1.90;99.90;;;;;;4888496;29;20060;-84
2021/12/11 03:41:46;;;;;;;18.77;13.00;;;1.90;99.90;;;;;;4890824;29;20406;-84
2021/12/11 03:44:15;;;;;;;18.35;11.95;;;1.90;99.90;;;;;;4889783;29;20324;-84
2021/12/11 03:46:45;;;;;;;22.17;13.88;;;1.90;99.90;;;;;;4892867;29;20099;-84
2021/12/11 03:49:16;;;;;;;18.05;12.05;;;1.90;99.90;;;;;;4889412;29;20060;-84
2021/12/11 03:51:46;;;;;;;17.70;12.40;;;1.90;99.90;;;;;;4892383;29;20048;-84
2021/12/11 03:54:22;;;;;;;19.55;12.48;;;1.90;99.90;;;;;;4890350;29;20052;-84
2021/12/11 03:56:50;;;;;;;19.83;13.43;;;1.90;99.90;;;;;;4886183;29;20079;-84
2021/12/11 03:59:17;;;;;;;17.20;12.38;;;1.90;99.90;;;;;;4890685;29;20752;-84
2021/12/11 04:02:01;;;;;;;19.13;14.00;;;1.90;99.90;;;;;;4907111;29;20044;-84
2021/12/11 04:04:56;;;;;;;18.67;12.55;;;1.90;99.90;;;;;;4891831;29;20090;-84
2021/12/11 04:07:32;;;;;;;20.13;13.98;;;1.90;99.90;;;;;;4905299;29;20067;-84
2021/12/11 04:10:00;;;;;;;21.20;13.93;;;1.90;99.90;;;;;;4889832;29;20454;-84
2021/12/11 04:12:27;;;;;;;20.27;13.80;;;1.90;99.90;;;;;;4891707;29;20096;-84
2021/12/11 04:14:55;;;;;;;22.30;13.82;;;1.90;99.90;;;;;;4889860;29;20048;-84
2021/12/11 04:17:25;;;;;;;21.85;13.65;;;1.90;99.90;;;;;;4892666;29;20056;-84
2021/12/11 04:19:55;;;;;;;;;;;1.90;99.90;;;;;;4891879;29;20049;-84
2021/12/11 04:22:23;;;;;;;18.73;13.03;;;1.90;99.90;;;;;;4892951;29;19923;-84
2021/12/11 04:24:51;;;;;;;18.27;13.70;;;1.90;99.90;;;;;;4888227;29;20103;-84
2021/12/11 04:27:20;;;;;;;18.15;13.35;;;1.90;99.90;;;;;;4891068;29;20726;-84
2021/12/11 04:29:50;;;;;;;18.42;11.80;;;1.90;99.90;;;;;;4889181;29;20045;-84
2021/12/11 04:32:21;;;;;;;19.55;13.13;;;1.90;99.90;;;;;;4891077;29;20036;-84
2021/12/11 04:34:50;;;;;;;18.92;14.15;;;1.90;99.90;;;;;;4890096;29;20052;-84
2021/12/11 04:37:23;;;;;;;19.40;13.55;;;1.90;99.90;;;;;;4889644;29;20040;-84
2021/12/11 04:39:58;;;;;;;21.75;15.43;;;1.90;99.90;;;;;;4891099;29;20059;-84
2021/12/11 04:42:42;;;;;;;21.17;14.05;;;1.90;99.90;;;;;;4890243;29;20045;-84
2021/12/11 04:45:16;;;;;;;20.00;12.77;;;1.90;99.90;;;;;;4887475;29;20044;-84
2021/12/11 04:47:51;;;;;;;18.08;12.57;;;1.90;99.90;;;;;;4892377;29;20573;-84
2021/12/11 04:50:39;;;;;;;18.73;13.68;;;1.90;99.90;;;;;;4889685;29;20037;-84
2021/12/11 04:53:28;;;;;;;17.80;12.50;;;1.90;99.90;;;;;;4903885;29;20063;-84
2021/12/11 05:12:05;;;;;;;19.20;12.43;;;1.90;99.90;;;;;;4899952;29;20053;-84
2021/12/11 05:14:32;;;;;;;19.75;12.23;;;1.90;99.90;;;;;;4882157;29;20040;-84
2021/12/11 05:16:59;;;;;;;20.02;13.40;;;1.90;99.90;;;;;;4889135;29;20124;-84
2021/12/11 05:19:27;;;;;;;25.77;15.02;;;1.90;99.90;;;;;;4888846;29;20083;-84
2021/12/11 05:21:54;;;;;;;20.20;13.68;;;1.90;99.90;;;;;;4892749;29;20099;-84
2021/12/11 05:24:21;;;;;;;25.17;15.30;;;1.90;99.90;;;;;;4889552;29;20044;-84
2021/12/11 05:26:49;;;;;;;21.95;15.18;;;1.90;99.90;;;;;;4903110;29;20056;-84
2021/12/11 05:29:16;;;;;;;20.52;13.40;;;1.90;99.90;;;;;;4888462;29;20056;-84
2021/12/11 05:31:45;;;;;;;23.58;15.25;;;1.90;99.90;;;;;;4891865;29;20048;-84
2021/12/11 05:34:12;;;;;;;26.15;16.45;;;1.90;99.90;;;;;;4889417;29;20059;-84
2021/12/11 05:36:39;;;;;;;24.67;16.10;;;1.90;99.90;;;;;;4888549;29;20596;-84
2021/12/11 05:39:14;;;;;;;25.08;16.30;;;2.00;99.90;;;;;;4886348;29;20522;-84
2021/12/11 05:41:43;;;;;;;26.00;17.42;;;1.90;99.90;;;;;;4889501;29;20045;-85
2021/12/11 05:44:11;;;;;;;28.20;15.70;;;1.90;99.90;;;;;;4890207;29;20499;-83
2021/12/11 05:46:39;;;;;;;33.25;18.48;;;1.90;99.90;;;;;;4887188;29;20104;-84
2021/12/11 05:49:09;;;;;;;27.35;16.10;;;1.90;99.90;;;;;;4896014;29;20810;-84
2021/12/11 05:51:40;;;;;;;28.73;18.50;;;1.90;99.90;;;;;;4888032;29;20053;-84
2021/12/11 05:54:11;;;;;;;24.80;17.30;;;1.90;99.90;;;;;;4871343;29;20087;-84
2021/12/11 05:56:40;;;;;;;29.60;17.10;;;1.90;99.90;;;;;;4908008;29;20056;-84
2021/12/11 05:59:11;;;;;;;25.67;16.83;;;1.90;99.90;;;;;;4888813;29;20056;-84
2021/12/11 06:01:45;;;;;;;27.88;16.80;;;1.90;99.90;;;;;;4894583;29;20064;-84
2021/12/11 06:04:17;;;;;;;28.05;18.67;;;1.90;99.90;;;;;;4892329;29;20104;-84
2021/12/11 06:06:45;;;;;;;25.48;16.25;;;1.90;99.90;;;;;;4910665;29;20051;-84
2021/12/11 06:09:14;;;;;;;28.95;18.23;;;1.90;99.90;;;;;;4889659;29;20418;-84
2021/12/11 06:11:45;;;;;;;31.02;18.15;;;1.90;99.90;;;;;;4888588;29;20052;-84
2021/12/11 06:14:12;;;;;;;26.70;18.40;;;1.90;99.90;;;;;;4894371;29;20052;-85
2021/12/11 06:16:39;;;;;;;22.67;16.13;;;1.90;99.90;;;;;;4893379;29;20045;-84
2021/12/11 06:19:07;;;;;;;26.55;17.58;;;1.90;99.90;;;;;;4889285;29;20053;-84
2021/12/11 06:21:35;;;;;;;26.40;15.82;;;1.90;99.90;;;;;;4890449;29;20041;-84
2021/12/11 06:24:04;;;;;;;26.77;17.60;;;1.90;99.90;;;;;;4894251;29;20104;-83
2021/12/11 06:26:32;;;;;;;23.63;17.80;;;1.90;99.90;;;;;;4894399;29;20080;-84
2021/12/11 06:29:00;;;;;;;25.40;17.58;;;1.90;99.90;;;;;;4887766;29;20048;-84
2021/12/11 06:31:27;;;;;;;29.98;19.45;;;1.90;99.90;;;;;;4893283;29;20053;-84
2021/12/11 06:33:55;;;;;;;29.80;17.80;;;1.90;99.90;;;;;;4894636;29;20135;-84
2021/12/11 06:36:26;;;;;;;30.67;19.38;;;1.90;99.90;;;;;;4885110;29;20052;-84
2021/12/11 06:38:58;;;;;;;27.27;16.80;;;1.90;99.90;;;;;;4888341;29;20048;-83
2021/12/11 06:41:30;;;;;;;24.90;15.63;;;1.90;99.90;;;;;;4891294;29;20063;-83
2021/12/11 06:43:57;;;;;;;26.95;17.33;;;1.90;99.90;;;;;;4889825;29;20060;-84
2021/12/11 06:46:24;;;;;;;27.52;20.17;;;1.90;99.90;;;;;;4887901;29;20454;-84
2021/12/11 06:48:52;;;;;;;26.17;18.63;;;1.90;99.90;;;;;;4890191;29;20044;-84
2021/12/11 06:51:19;;;;;;;27.85;18.60;;;1.90;99.90;;;;;;4892298;29;20053;-84
2021/12/11 06:53:58;;;;;;;26.38;18.45;;;1.90;99.90;;;;;;4893833;29;20056;-84
2021/12/11 06:56:27;;;;;;;30.13;19.52;;;1.90;99.90;;;;;;4903282;29;20041;-84
2021/12/11 06:58:55;;;;;;;30.33;18.95;;;1.90;99.90;;;;;;4892324;29;20044;-84
2021/12/11 07:01:24;;;;;;;32.25;22.17;;;1.90;99.90;;;;;;4892264;29;20044;-84
2021/12/11 07:03:53;;;;;;;31.20;20.73;;;1.90;99.90;;;;;;4891205;29;20052;-84
2021/12/11 07:06:20;;;;;;;27.30;18.73;;;1.90;99.90;;;;;;4889957;29;20036;-84
2021/12/11 07:08:49;;;;;;;27.77;19.45;;;1.90;99.90;;;;;;4891530;29;20048;-84
2021/12/11 07:11:17;;;;;;;27.92;18.70;;;1.90;99.90;;;;;;4901999;29;20045;-84
2021/12/11 07:13:44;;;;;;;25.38;18.70;;;1.90;99.90;;;;;;4884356;29;20811;-84
2021/12/11 07:16:12;;;;;;;30.63;18.70;;;1.90;99.90;;;;;;4884563;29;20049;-84
2021/12/11 07:18:40;;;;;;;29.73;19.35;;;1.80;99.90;;;;;;4903423;29;20044;-84
2021/12/11 07:21:07;;;;;;;33.67;22.27;;;1.80;99.90;;;;;;4893553;29;20118;-84
2021/12/11 07:23:35;;;;;;;37.60;21.17;;;1.80;99.90;;;;;;4893008;29;20388;-84
2021/12/11 07:26:13;;;;;;;29.52;19.65;;;1.80;99.90;;;;;;4891023;29;20057;-84
2021/12/11 07:28:41;;;;;;;29.90;19.83;;;1.80;99.90;;;;;;4891240;29;20752;-84
2021/12/11 07:31:08;;;;;;;32.75;22.00;;;1.80;99.90;;;;;;4902797;29;20064;-84
2021/12/11 07:33:37;;;;;;;30.70;20.50;;;1.80;99.90;;;;;;4892614;29;20072;-84
2021/12/11 07:36:06;;;;;;;29.83;19.83;;;1.80;99.90;;;;;;4889582;29;20055;-84
2021/12/11 07:38:33;;;;;;;31.80;22.15;;;1.80;99.90;;;;;;4888562;29;20064;-84
2021/12/11 07:41:04;;;;;;;31.75;21.45;;;1.80;99.90;;;;;;4889578;29;20049;-84
2021/12/11 07:43:31;;;;;;;30.45;20.00;;;1.80;99.90;;;;;;4893574;29;20044;-84
2021/12/11 07:45:59;;;;;;;31.55;20.50;;;1.80;99.90;;;;;;4891843;29;20059;-84
2021/12/11 07:48:26;;;;;;;34.53;21.30;;;1.80;99.90;;;;;;4887880;29;20132;-85
2021/12/11 07:50:54;;;;;;;33.88;21.95;;;1.70;99.90;;;;;;4889757;29;20051;-84
2021/12/11 07:53:22;;;;;;;30.13;19.45;;;1.70;99.90;;;;;;4892098;29;20092;-85
2021/12/11 07:55:50;;;;;;;29.63;20.35;;;1.70;99.90;;;;;;4891767;29;20468;-84
2021/12/11 07:58:17;;;;;;;29.90;22.70;;;1.80;99.90;;;;;;4905241;29;20040;-84
2021/12/11 08:00:45;;;;;;;33.42;22.65;;;1.70;99.90;;;;;;4902514;29;20135;-84
2021/12/11 08:03:13;;;;;;;34.92;21.05;;;1.80;99.90;;;;;;4890464;29;20369;-84
2021/12/11 08:05:43;;;;;;;32.08;21.23;;;1.80;99.90;;;;;;4892071;29;20463;-84
2021/12/11 08:08:10;;;;;;;29.77;21.15;;;1.80;99.90;;;;;;4868917;29;20060;-85
2021/12/11 08:10:41;;;;;;;35.38;21.95;;;1.80;99.90;;;;;;4891562;29;20060;-84
2021/12/11 08:13:09;;;;;;;34.60;20.52;;;1.80;99.90;;;;;;4883375;29;20586;-84
2021/12/11 08:15:38;;;;;;;32.55;21.88;;;1.80;99.90;;;;;;4889401;29;20100;-84
2021/12/11 08:18:08;;;;;;;34.90;23.20;;;1.80;99.90;;;;;;4890597;29;20049;-85
2021/12/11 08:20:36;;;;;;;36.13;24.13;;;1.80;99.90;;;;;;4894140;29;20582;-84
2021/12/11 08:23:05;;;;;;;34.22;22.10;;;1.80;99.90;;;;;;4889553;29;20044;-84
2021/12/11 08:25:37;;;;;;;37.35;22.65;;;1.80;99.90;;;;;;4892856;29;20056;-84
2021/12/11 08:28:08;;;;;;;34.17;23.92;;;1.90;99.90;;;;;;4891230;29;20672;-85
2021/12/11 08:30:39;;;;;;;36.10;22.98;;;1.90;99.90;;;;;;4891767;29;20068;-84
2021/12/11 08:33:07;;;;;;;39.38;25.90;;;1.90;99.90;;;;;;4887424;29;20045;-85
2021/12/11 08:35:34;;;;;;;36.03;24.15;;;1.90;99.90;;;;;;4891700;29;20048;-85
2021/12/11 08:38:04;;;;;;;44.40;27.52;;;1.90;99.90;;;;;;4906515;29;20041;-84
2021/12/11 08:40:35;;;;;;;38.40;24.33;;;1.90;99.90;;;;;;4876559;29;20048;-84
2021/12/11 08:43:05;;;;;;;44.40;28.25;;;1.90;99.90;;;;;;4887522;29;20041;-85
2021/12/11 08:45:45;;;;;;;40.22;24.83;;;1.90;99.90;;;;;;4887299;29;20134;-84
2021/12/11 08:48:17;;;;;;;37.75;25.23;;;1.90;99.90;;;;;;4886157;29;20124;-85
2021/12/11 08:50:48;;;;;;;40.03;26.85;;;2.00;99.90;;;;;;4888429;29;20058;-84
2021/12/11 08:53:15;;;;;;;;;;;2.00;99.90;;;;;;4883040;29;20044;-84
2021/12/11 08:55:45;;;;;;;42.00;26.30;;;2.00;99.90;;;;;;4900160;29;20385;-84
2021/12/11 08:58:17;;;;;;;43.22;28.02;;;2.00;99.90;;;;;;4891835;29;20041;-84
2021/12/11 09:00:47;;;;;;;49.65;31.33;;;2.00;99.90;;;;;;4891505;29;20044;-84
2021/12/11 09:03:32;;;;;;;50.00;33.17;;;1.90;99.90;;;;;;4905503;29;20068;-84
2021/12/11 09:06:07;;;;;;;48.97;31.48;;;1.90;99.90;;;;;;4889035;29;20044;-84
2021/12/11 09:08:37;;;;;;;50.70;31.15;;;2.00;99.90;;;;;;4890760;29;20483;-84
2021/12/11 09:11:07;;;;;;;48.60;31.90;;;1.90;99.90;;;;;;4904719;29;20470;-84
2021/12/11 09:13:49;;;;;;;47.35;31.70;;;2.00;99.90;;;;;;4887161;29;20052;-85
2021/12/11 09:16:29;;;;;;;47.30;31.45;;;2.00;99.90;;;;;;4885688;29;20037;-84
2021/12/11 09:19:10;;;;;;;52.88;32.20;;;2.00;99.90;;;;;;4884022;29;20044;-84
2021/12/11 09:21:43;;;;;;;47.63;28.95;;;2.00;99.90;;;;;;4891232;29;20041;-84
2021/12/11 09:24:17;;;;;;;46.17;28.67;;;2.00;99.90;;;;;;4904765;29;20135;-84
2021/12/11 09:26:54;;;;;;;45.97;32.33;;;2.10;99.90;;;;;;4888276;29;20395;-84
2021/12/11 09:29:34;;;;;;;48.35;31.67;;;2.10;99.90;;;;;;4879950;29;20055;-85
2021/12/11 09:32:06;;;;;;;43.37;29.63;;;2.10;99.90;;;;;;4891467;29;20047;-84
2021/12/11 09:34:40;;;;;;;53.38;32.63;;;2.10;99.90;;;;;;4881282;29;20288;-84
2021/12/11 09:37:08;;;;;;;47.13;31.40;;;2.10;99.90;;;;;;4887280;29;20048;-84
2021/12/11 09:39:47;;;;;;;47.85;30.17;;;2.20;99.90;;;;;;4890473;29;20056;-84
2021/12/11 09:42:14;;;;;;;49.13;33.07;;;2.20;99.90;;;;;;4890251;29;20048;-84
2021/12/11 09:44:47;;;;;;;53.83;34.60;;;2.20;99.90;;;;;;4888870;29;20359;-84
2021/12/11 09:47:22;;;;;;;50.42;32.55;;;2.30;99.90;;;;;;4890158;29;20044;-84
2021/12/11 09:49:57;;;;;;;48.85;32.25;;;2.30;99.90;;;;;;4889314;29;20037;-84
2021/12/11 09:52:26;;;;;;;49.78;32.17;;;2.20;99.90;;;;;;4905288;29;20044;-84
2021/12/11 09:55:04;;;;;;;51.23;32.97;;;2.30;99.90;;;;;;4888537;29;20594;-84
2021/12/11 09:57:35;;;;;;;49.38;34.03;;;2.30;99.90;;;;;;4887551;29;20044;-84
2021/12/11 10:00:10;;;;;;;44.10;31.75;;;2.30;99.90;;;;;;4889734;29;20134;-84
2021/12/11 10:02:42;;;;;;;54.00;34.00;;;2.30;99.90;;;;;;4890388;29;20100;-84
2021/12/11 10:05:35;;;;;;;51.95;32.22;;;2.30;99.90;;;;;;4882794;29;20600;-84
2021/12/11 10:11:23;;;;;;;47.88;30.30;;;2.30;99.90;;;;;;4887718;29;20067;-84
2021/12/11 10:13:55;;;;;;;47.08;31.67;;;2.30;99.90;;;;;;4890635;29;20662;-84
2021/12/11 10:16:26;;;;;;;45.47;30.95;;;2.30;99.90;;;;;;4888986;29;20049;-84
2021/12/11 10:18:54;;;;;;;47.67;31.98;;;2.30;99.90;;;;;;4885426;29;20052;-84
2021/12/11 10:21:30;;;;;;;45.88;31.00;;;2.40;99.90;;;;;;4892259;29;20053;-84
2021/12/11 10:23:59;;;;;;;47.80;32.80;;;2.40;99.90;;;;;;4889810;29;20139;-84
2021/12/11 10:26:28;;;;;;;40.23;29.37;;;2.40;99.90;;;;;;4901817;29;20458;-84
2021/12/11 10:28:59;;;;;;;50.33;30.85;;;2.30;99.90;;;;;;4901867;29;20045;-84
2021/12/11 10:31:28;;;;;;;47.90;28.67;;;2.40;99.90;;;;;;4906948;29;20052;-84
2021/12/11 10:33:58;;;;;;;43.10;29.52;;;2.40;99.90;;;;;;4890635;29;20463;-84
2021/12/11 10:36:30;;;;;;;48.00;32.13;;;2.40;99.90;;;;;;4889533;29;20503;-84
2021/12/11 10:38:58;;;;;;;51.63;31.30;;;2.40;99.90;;;;;;4891495;29;20052;-84
2021/12/11 10:41:29;;;;;;;45.47;31.52;;;2.40;99.90;;;;;;4893525;29;20521;-85
2021/12/11 10:43:58;;;;;;;47.75;34.65;;;2.50;99.90;;;;;;4891670;29;20136;-84
2021/12/11 10:46:30;;;;;;;40.58;26.48;;;2.50;99.90;;;;;;4892696;29;20040;-84
2021/12/11 10:48:58;;;;;;;44.08;27.73;;;2.50;99.90;;;;;;4891706;29;20570;-84
2021/12/11 10:51:40;;;;;;;42.38;27.92;;;2.50;99.90;;;;;;4895609;29;20040;-84
2021/12/11 10:54:08;;;;;;;44.45;29.50;;;2.50;99.90;;;;;;4892916;29;20045;-84
2021/12/11 10:56:37;;;;;;;42.30;27.98;;;2.50;99.90;;;;;;4890903;29;20418;-84
2021/12/11 10:59:09;;;;;;;45.08;29.70;;;2.60;99.90;;;;;;4883534;29;20128;-84
2021/12/11 11:01:45;;;;;;;45.35;30.42;;;2.60;99.90;;;;;;4890833;29;20040;-84
2021/12/11 11:04:17;;;;;;;42.38;28.77;;;2.60;99.90;;;;;;4893990;29;20562;-84
2021/12/11 11:06:45;;;;;;;52.42;34.88;;;2.60;99.90;;;;;;4891647;29;20044;-84
2021/12/11 11:09:14;;;;;;;48.47;30.13;;;2.60;99.90;;;;;;4895720;29;20047;-84
2021/12/11 11:11:41;;;;;;;43.88;29.08;;;2.60;99.90;;;;;;4891939;29;20052;-84
2021/12/11 11:14:10;;;;;;;44.45;29.13;;;2.60;99.90;;;;;;4892996;29;20511;-84
2021/12/11 11:16:42;;;;;;;50.05;32.97;;;2.60;99.90;;;;;;4889981;29;20040;-84
2021/12/11 11:19:09;;;;;;;43.70;30.17;;;2.60;99.90;;;;;;4890154;29;20052;-84
2021/12/11 11:21:42;;;;;;;46.47;29.98;;;2.60;99.90;;;;;;4894790;29;20044;-84
2021/12/11 11:24:11;;;;;;;42.92;28.42;;;2.60;99.90;;;;;;4892200;29;20059;-83
2021/12/11 11:26:45;;;;;;;47.97;31.40;;;2.60;99.90;;;;;;4885081;29;20617;-84
2021/12/11 11:29:17;;;;;;;45.50;27.95;;;2.60;99.90;;;;;;4890694;29;20052;-84
2021/12/11 11:31:46;;;;;;;40.80;28.45;;;2.60;99.90;;;;;;4890844;29;20127;-84
2021/12/11 11:34:17;;;;;;;43.90;28.57;;;2.60;99.90;;;;;;4890648;29;20053;-84
2021/12/11 11:36:46;;;;;;;42.50;26.88;;;2.60;99.90;;;;;;4889874;29;20044;-84
2021/12/11 11:39:19;;;;;;;39.47;27.48;;;2.60;99.90;;;;;;4886082;29;20492;-84
2021/12/11 11:41:51;;;;;;;41.85;26.45;;;2.60;99.90;;;;;;4890884;29;20045;-84
2021/12/11 11:44:21;;;;;;;46.17;25.17;;;2.60;99.90;;;;;;4889909;29;20044;-84
2021/12/11 11:46:49;;;;;;;41.38;27.25;;;2.60;99.90;;;;;;4895518;29;20044;-84
2021/12/11 11:49:18;;;;;;;40.55;25.40;;;2.60;99.90;;;;;;4890312;29;20049;-84
2021/12/11 11:51:53;;;;;;;43.42;27.75;;;2.60;99.90;;;;;;4891771;29;20611;-84
2021/12/11 11:54:23;;;;;;;43.88;28.45;;;2.60;99.90;;;;;;4894415;29;20301;-84
2021/12/11 11:57:17;;;;;;;41.92;26.48;;;2.60;99.90;;;;;;4890544;29;20048;-84
2021/12/11 11:59:44;;;;;;;35.83;26.42;;;2.60;99.90;;;;;;4891459;29;20384;-84
2021/12/11 12:02:20;;;;;;;44.40;27.90;;;2.70;99.90;;;;;;4906927;29;20041;-84
2021/12/11 12:04:51;;;;;;;44.95;28.27;;;2.70;99.90;;;;;;4907166;29;20294;-84
2021/12/11 12:07:24;;;;;;;;;;;2.80;99.90;;;;;;4889309;29;20045;-84
2021/12/11 12:09:53;;;;;;;36.03;26.95;;;2.80;99.90;;;;;;4895963;29;19924;-84
2021/12/11 12:12:23;;;;;;;37.92;25.88;;;2.80;99.90;;;;;;4892445;29;20096;-84
2021/12/11 12:14:53;;;;;;;42.20;25.92;;;2.80;99.90;;;;;;4887823;29;20055;-84
2021/12/11 12:17:23;;;;;;;40.78;25.60;;;2.70;99.90;;;;;;4890943;29;20426;-84
2021/12/11 12:19:52;;;;;;;41.85;26.50;;;2.70;99.90;;;;;;4888649;29;20048;-84
2021/12/11 12:22:21;;;;;;;42.38;27.48;;;2.60;99.90;;;;;;4892239;29;20100;-84
2021/12/11 12:24:51;;;;;;;47.22;29.02;;;2.60;99.90;;;;;;4884675;29;20124;-84
2021/12/11 12:27:21;;;;;;;36.97;27.77;;;2.60;99.90;;;;;;4904669;29;20048;-84
2021/12/11 12:29:49;;;;;;;42.05;26.00;;;2.50;99.90;;;;;;4884605;29;20048;-84
2021/12/11 12:32:30;;;;;;;45.92;27.60;;;2.50;99.90;;;;;;4890643;29;20049;-83
2021/12/11 12:35:02;;;;;;;45.50;28.13;;;2.50;99.90;;;;;;4889322;29;20100;-83
2021/12/11 12:37:29;;;;;;;38.42;25.60;;;2.50;99.90;;;;;;4890039;29;20151;-83
2021/12/11 12:39:58;;;;;;;44.13;26.65;;;2.50;99.90;;;;;;4888794;29;20414;-83
2021/12/11 12:42:37;;;;;;;41.58;26.05;;;2.50;99.90;;;;;;4890386;29;20075;-83
2021/12/11 12:45:16;;;;;;;44.00;27.77;;;2.50;99.90;;;;;;4886258;29;20063;-83
2021/12/11 12:47:49;;;;;;;40.03;27.65;;;2.50;99.90;;;;;;4888927;29;20258;-83
2021/12/11 12:50:29;;;;;;;44.83;30.52;;;2.50;99.90;;;;;;4901089;29;20053;-83
2021/12/11 12:52:57;;;;;;;44.43;30.00;;;2.40;99.90;;;;;;4889134;29;20048;-83
2021/12/11 12:55:24;;;;;;;43.15;28.10;;;2.40;99.90;;;;;;4891295;29;20642;-83
2021/12/11 12:57:56;;;;;;;42.20;28.55;;;2.40;99.90;;;;;;4887030;29;20076;-83
2021/12/11 13:00:35;;;;;;;40.20;27.00;;;2.40;99.90;;;;;;4888562;29;20041;-82
2021/12/11 13:03:08;;;;;;;41.30;25.55;;;2.40;99.90;;;;;;4885496;29;20049;-82
2021/12/11 13:05:45;;;;;;;43.55;26.85;;;2.40;99.90;;;;;;4891492;29;20055;-82
2021/12/11 13:08:19;;;;;;;40.85;27.02;;;2.30;99.90;;;;;;4909998;29;20052;-82
2021/12/11 13:10:53;;;;;;;37.30;24.60;;;2.30;99.90;;;;;;4886982;29;20047;-82
2021/12/11 13:13:23;;;;;;;42.13;27.08;;;2.20;99.90;;;;;;4905125;29;20470;-82
2021/12/11 13:15:55;;;;;;;40.22;26.95;;;2.20;99.90;;;;;;4888467;29;20053;-81
2021/12/11 13:18:29;;;;;;;39.20;24.73;;;2.20;99.90;;;;;;4904578;29;20047;-81
2021/12/11 13:21:10;;;;;;;41.65;26.42;;;2.10;99.90;;;;;;4887610;29;20053;-81